sensor_id;sensor_type;location;lat;lon;timestamp;temperature;humidity
31387;DHT22;69978;50.096;8.448;2023-07-30T00:01:58;18.80;99.90
31387;DHT22;69978;50.096;8.448;2023-07-30T00:04:24;18.80;99.90
31387;DHT22;69978;50.096;8.448;2023-07-30T00:06:50;18.80;99.90
31387;DHT22;69978;50.096;8.448;2023-07-30T00:09:16;18.80;99.90
31387;DHT22;69978;50.096;8.448;2023-07-30T00:11:42;18.80;99.90
31387;DHT22;69978;50.096;8.448;2023-07-30T00:14:09;18.90;99.90
31387;DHT22;69978;50.096;8.448;2023-07-30T00:16:34;18.90;99.90
31387;DHT22;69978;50.096;8.448;2023-07-30T00:19:00;18.90;99.90
31387;DHT22;69978;50.096;8.448;2023-07-30T00:21:26;18.90;99.90
31387;DHT22;69978;50.096;8.448;2023-07-30T00:23:51;18.90;99.90
31387;DHT22;69978;50.096;8.448;2023-07-30T00:26:17;19.00;99.90
31387;DHT22;69978;50.096;8.448;2023-07-30T00:28:42;19.20;99.90
31387;DHT22;69978;50.096;8.448;2023-07-30T00:31:08;19.20;99.90
31387;DHT22;69978;50.096;8.448;2023-07-30T00:33:33;19.20;99.90
31387;DHT22;69978;50.096;8.448;2023-07-30T00:35:59;19.10;99.90
31387;DHT22;69978;50.096;8.448;2023-07-30T00:38:25;19.20;99.90
31387;DHT22;69978;50.096;8.448;2023-07-30T00:40:50;19.20;99.90
31387;DHT22;69978;50.096;8.448;2023-07-30T00:43:16;19.20;99.90
31387;DHT22;69978;50.096;8.448;2023-07-30T00:45:43;19.20;99.90
31387;DHT22;69978;50.096;8.448;2023-07-30T00:48:10;19.20;99.90
31387;DHT22;69978;50.096;8.448;2023-07-30T00:50:37;19.20;99.90
31387;DHT22;69978;50.096;8.448;2023-07-30T00:53:03;19.30;99.90
31387;DHT22;69978;50.096;8.448;2023-07-30T00:55:29;19.30;99.90
31387;DHT22;69978;50.096;8.448;2023-07-30T00:57:56;19.30;99.90
31387;DHT22;69978;50.096;8.448;2023-07-30T01:00:25;19.20;99.90
31387;DHT22;69978;50.096;8.448;2023-07-30T01:02:52;19.20;99.90
31387;DHT22;69978;50.096;8.448;2023-07-30T01:05:18;19.30;99.90
31387;DHT22;69978;50.096;8.448;2023-07-30T01:07:43;19.20;99.90
31387;DHT22;69978;50.096;8.448;2023-07-30T01:10:09;19.20;99.90
31387;DHT22;69978;50.096;8.448;2023-07-30T01:12:35;19.20;99.90
31387;DHT22;69978;50.096;8.448;2023-07-30T01:15:03;19.30;99.90
31387;DHT22;69978;50.096;8.448;2023-07-30T01:17:29;19.20;99.90
31387;DHT22;69978;50.096;8.448;2023-07-30T01:19:55;19.20;99.90
31387;DHT22;69978;50.096;8.448;2023-07-30T01:22:22;19.10;99.90
31387;DHT22;69978;50.096;8.448;2023-07-30T01:24:48;19.10;99.90
31387;DHT22;69978;50.096;8.448;2023-07-30T01:27:29;19.00;99.90
31387;DHT22;69978;50.096;8.448;2023-07-30T01:32:30;19.00;99.90
31387;DHT22;69978;50.096;8.448;2023-07-30T01:34:57;19.00;99.90
31387;DHT22;69978;50.096;8.448;2023-07-30T01:37:24;18.90;99.90
31387;DHT22;69978;50.096;8.448;2023-07-30T01:39:51;18.90;99.90
31387;DHT22;69978;50.096;8.448;2023-07-30T01:42:17;18.90;99.90
31387;DHT22;69978;50.096;8.448;2023-07-30T01:44:43;18.90;99.90
31387;DHT22;69978;50.096;8.448;2023-07-30T01:47:08;18.90;99.90
31387;DHT22;69978;50.096;8.448;2023-07-30T01:49:34;18.90;99.90
31387;DHT22;69978;50.096;8.448;2023-07-30T01:52:00;18.90;99.90
31387;DHT22;69978;50.096;8.448;2023-07-30T01:54:25;18.80;99.90
31387;DHT22;69978;50.096;8.448;2023-07-30T01:56:51;18.90;99.90
31387;DHT22;69978;50.096;8.448;2023-07-30T01:59:17;18.90;99.90
31387;DHT22;69978;50.096;8.448;2023-07-30T02:01:43;18.90;99.90
31387;DHT22;69978;50.096;8.448;2023-07-30T02:04:09;18.80;99.90
31387;DHT22;69978;50.096;8.448;2023-07-30T02:06:34;18.80;99.90
31387;DHT22;69978;50.096;8.448;2023-07-30T02:09:00;18.80;99.90
31387;DHT22;69978;50.096;8.448;2023-07-30T02:11:25;18.80;99.90
31387;DHT22;69978;50.096;8.448;2023-07-30T02:13:51;18.70;99.90
31387;DHT22;69978;50.096;8.448;2023-07-30T02:16:17;18.70;99.90
31387;DHT22;69978;50.096;8.448;2023-07-30T02:18:43;18.70;99.90
31387;DHT22;69978;50.096;8.448;2023-07-30T02:21:08;18.70;99.90
31387;DHT22;69978;50.096;8.448;2023-07-30T02:23:34;18.70;99.90
31387;DHT22;69978;50.096;8.448;2023-07-30T02:26:00;18.60;99.90
31387;DHT22;69978;50.096;8.448;2023-07-30T02:28:25;18.60;99.90
31387;DHT22;69978;50.096;8.448;2023-07-30T02:30:51;18.60;99.90
31387;DHT22;69978;50.096;8.448;2023-07-30T02:33:16;18.60;99.90
31387;DHT22;69978;50.096;8.448;2023-07-30T02:35:43;18.60;99.90
31387;DHT22;69978;50.096;8.448;2023-07-30T02:38:09;18.60;99.90
31387;DHT22;69978;50.096;8.448;2023-07-30T02:40:34;18.50;99.90
31387;DHT22;69978;50.096;8.448;2023-07-30T02:43:00;18.50;99.90
31387;DHT22;69978;50.096;8.448;2023-07-30T02:45:26;18.50;99.90
31387;DHT22;69978;50.096;8.448;2023-07-30T02:47:52;18.50;99.90
31387;DHT22;69978;50.096;8.448;2023-07-30T02:50:17;18.50;99.90
31387;DHT22;69978;50.096;8.448;2023-07-30T02:52:43;18.40;99.90
31387;DHT22;69978;50.096;8.448;2023-07-30T02:55:08;18.40;99.90
31387;DHT22;69978;50.096;8.448;2023-07-30T02:57:34;18.40;99.90
31387;DHT22;69978;50.096;8.448;2023-07-30T03:00:00;18.30;99.90
31387;DHT22;69978;50.096;8.448;2023-07-30T03:02:25;18.30;99.90
31387;DHT22;69978;50.096;8.448;2023-07-30T03:04:51;18.30;99.90
31387;DHT22;69978;50.096;8.448;2023-07-30T03:07:16;18.30;99.90
31387;DHT22;69978;50.096;8.448;2023-07-30T03:09:43;18.30;99.90
31387;DHT22;69978;50.096;8.448;2023-07-30T03:12:09;18.30;99.90
31387;DHT22;69978;50.096;8.448;2023-07-30T03:14:34;18.20;99.90
31387;DHT22;69978;50.096;8.448;2023-07-30T03:17:00;18.30;99.90
31387;DHT22;69978;50.096;8.448;2023-07-30T03:19:25;18.30;99.90
31387;DHT22;69978;50.096;8.448;2023-07-30T03:21:51;18.30;99.90
31387;DHT22;69978;50.096;8.448;2023-07-30T03:24:17;18.30;99.90
31387;DHT22;69978;50.096;8.448;2023-07-30T03:26:42;18.30;99.90
31387;DHT22;69978;50.096;8.448;2023-07-30T03:29:08;18.30;99.90
31387;DHT22;69978;50.096;8.448;2023-07-30T03:31:33;18.30;99.90
31387;DHT22;69978;50.096;8.448;2023-07-30T03:33:59;18.20;99.90
31387;DHT22;69978;50.096;8.448;2023-07-30T03:36:25;18.20;99.90
31387;DHT22;69978;50.096;8.448;2023-07-30T03:38:50;18.20;99.90
31387;DHT22;69978;50.096;8.448;2023-07-30T03:41:16;18.20;99.90
31387;DHT22;69978;50.096;8.448;2023-07-30T03:43:41;18.20;99.90
31387;DHT22;69978;50.096;8.448;2023-07-30T03:46:07;18.20;99.90
31387;DHT22;69978;50.096;8.448;2023-07-30T03:48:32;18.10;99.90
31387;DHT22;69978;50.096;8.448;2023-07-30T03:50:58;18.10;99.90
31387;DHT22;69978;50.096;8.448;2023-07-30T03:53:23;18.10;99.90
31387;DHT22;69978;50.096;8.448;2023-07-30T03:55:49;18.00;99.90
31387;DHT22;69978;50.096;8.448;2023-07-30T03:58:15;18.00;99.90
31387;DHT22;69978;50.096;8.448;2023-07-30T04:00:40;18.00;99.90
31387;DHT22;69978;50.096;8.448;2023-07-30T04:03:06;18.00;99.90
31387;DHT22;69978;50.096;8.448;2023-07-30T04:05:32;17.90;99.90
31387;DHT22;69978;50.096;8.448;2023-07-30T04:07:57;18.00;99.90
31387;DHT22;69978;50.096;8.448;2023-07-30T04:10:23;17.90;99.90
31387;DHT22;69978;50.096;8.448;2023-07-30T04:12:49;17.90;99.90
31387;DHT22;69978;50.096;8.448;2023-07-30T04:15:15;17.90;99.90
31387;DHT22;69978;50.096;8.448;2023-07-30T04:17:41;17.90;99.90
31387;DHT22;69978;50.096;8.448;2023-07-30T04:20:07;17.80;99.90
31387;DHT22;69978;50.096;8.448;2023-07-30T04:22:35;17.80;99.90
31387;DHT22;69978;50.096;8.448;2023-07-30T04:25:00;17.80;99.90
31387;DHT22;69978;50.096;8.448;2023-07-30T04:27:26;17.80;99.90
31387;DHT22;69978;50.096;8.448;2023-07-30T04:29:52;17.70;99.90
31387;DHT22;69978;50.096;8.448;2023-07-30T04:32:17;17.70;99.90
31387;DHT22;69978;50.096;8.448;2023-07-30T04:34:43;17.70;99.90
31387;DHT22;69978;50.096;8.448;2023-07-30T04:37:08;17.70;99.90
31387;DHT22;69978;50.096;8.448;2023-07-30T04:39:35;17.60;99.90
31387;DHT22;69978;50.096;8.448;2023-07-30T04:42:01;17.60;99.90
31387;DHT22;69978;50.096;8.448;2023-07-30T04:44:26;17.60;99.90
31387;DHT22;69978;50.096;8.448;2023-07-30T04:46:52;17.60;99.90
31387;DHT22;69978;50.096;8.448;2023-07-30T04:49:17;17.60;99.90
31387;DHT22;69978;50.096;8.448;2023-07-30T04:51:43;17.50;99.90
31387;DHT22;69978;50.096;8.448;2023-07-30T04:54:09;17.60;99.90
31387;DHT22;69978;50.096;8.448;2023-07-30T04:56:34;17.60;99.90
31387;DHT22;69978;50.096;8.448;2023-07-30T04:59:01;17.60;99.90
31387;DHT22;69978;50.096;8.448;2023-07-30T05:01:26;17.60;99.90
31387;DHT22;69978;50.096;8.448;2023-07-30T05:03:52;17.60;99.90
31387;DHT22;69978;50.096;8.448;2023-07-30T05:06:18;17.60;99.90
31387;DHT22;69978;50.096;8.448;2023-07-30T05:08:43;17.60;99.90
31387;DHT22;69978;50.096;8.448;2023-07-30T05:11:09;17.60;99.90
31387;DHT22;69978;50.096;8.448;2023-07-30T05:13:34;17.60;99.90
31387;DHT22;69978;50.096;8.448;2023-07-30T05:16:00;17.70;99.90
31387;DHT22;69978;50.096;8.448;2023-07-30T05:18:27;17.80;99.90
31387;DHT22;69978;50.096;8.448;2023-07-30T05:20:52;17.80;99.90
31387;DHT22;69978;50.096;8.448;2023-07-30T05:23:18;17.90;99.90
31387;DHT22;69978;50.096;8.448;2023-07-30T05:25:43;18.00;99.90
31387;DHT22;69978;50.096;8.448;2023-07-30T05:28:09;18.10;99.90
31387;DHT22;69978;50.096;8.448;2023-07-30T05:30:34;18.30;99.90
31387;DHT22;69978;50.096;8.448;2023-07-30T05:33:00;18.30;99.90
31387;DHT22;69978;50.096;8.448;2023-07-30T05:35:25;18.30;99.90
31387;DHT22;69978;50.096;8.448;2023-07-30T05:37:51;18.30;99.90
31387;DHT22;69978;50.096;8.448;2023-07-30T05:40:16;18.30;99.90
31387;DHT22;69978;50.096;8.448;2023-07-30T05:42:42;18.40;99.90
31387;DHT22;69978;50.096;8.448;2023-07-30T05:45:08;18.40;99.90
31387;DHT22;69978;50.096;8.448;2023-07-30T05:47:34;18.50;99.90
31387;DHT22;69978;50.096;8.448;2023-07-30T05:49:59;18.40;99.90
31387;DHT22;69978;50.096;8.448;2023-07-30T05:52:25;18.50;99.90
31387;DHT22;69978;50.096;8.448;2023-07-30T05:54:50;18.60;99.90
31387;DHT22;69978;50.096;8.448;2023-07-30T05:57:16;18.60;99.90
31387;DHT22;69978;50.096;8.448;2023-07-30T05:59:41;18.60;99.90
31387;DHT22;69978;50.096;8.448;2023-07-30T06:02:07;18.70;99.90
31387;DHT22;69978;50.096;8.448;2023-07-30T06:04:32;18.70;99.90
31387;DHT22;69978;50.096;8.448;2023-07-30T06:06:59;18.70;99.90
31387;DHT22;69978;50.096;8.448;2023-07-30T06:09:25;18.70;99.90
31387;DHT22;69978;50.096;8.448;2023-07-30T06:11:51;18.70;99.90
31387;DHT22;69978;50.096;8.448;2023-07-30T06:14:17;18.80;99.90
31387;DHT22;69978;50.096;8.448;2023-07-30T06:16:42;18.90;99.90
31387;DHT22;69978;50.096;8.448;2023-07-30T06:19:08;19.00;99.90
31387;DHT22;69978;50.096;8.448;2023-07-30T06:21:34;19.10;99.90
31387;DHT22;69978;50.096;8.448;2023-07-30T06:24:00;19.20;99.90
31387;DHT22;69978;50.096;8.448;2023-07-30T06:26:25;19.30;99.90
31387;DHT22;69978;50.096;8.448;2023-07-30T06:28:51;19.30;99.90
31387;DHT22;69978;50.096;8.448;2023-07-30T06:31:16;19.30;99.90
31387;DHT22;69978;50.096;8.448;2023-07-30T06:33:42;19.30;99.90
31387;DHT22;69978;50.096;8.448;2023-07-30T06:36:07;19.40;99.90
31387;DHT22;69978;50.096;8.448;2023-07-30T06:38:33;19.40;99.90
31387;DHT22;69978;50.096;8.448;2023-07-30T06:40:58;19.40;99.90
31387;DHT22;69978;50.096;8.448;2023-07-30T06:43:24;19.40;99.90
31387;DHT22;69978;50.096;8.448;2023-07-30T06:45:50;19.50;99.90
31387;DHT22;69978;50.096;8.448;2023-07-30T06:48:15;19.50;99.90
31387;DHT22;69978;50.096;8.448;2023-07-30T06:50:41;19.50;99.90
31387;DHT22;69978;50.096;8.448;2023-07-30T06:53:07;19.50;99.90
31387;DHT22;69978;50.096;8.448;2023-07-30T06:55:32;19.50;99.90
31387;DHT22;69978;50.096;8.448;2023-07-30T06:57:58;19.50;99.90
31387;DHT22;69978;50.096;8.448;2023-07-30T07:00:24;19.50;99.90
31387;DHT22;69978;50.096;8.448;2023-07-30T07:02:50;19.60;99.90
31387;DHT22;69978;50.096;8.448;2023-07-30T07:05:16;19.60;99.90
31387;DHT22;69978;50.096;8.448;2023-07-30T07:07:41;19.60;99.90
31387;DHT22;69978;50.096;8.448;2023-07-30T07:10:07;19.70;99.90
31387;DHT22;69978;50.096;8.448;2023-07-30T07:12:33;19.80;99.90
31387;DHT22;69978;50.096;8.448;2023-07-30T07:14:58;19.90;99.90
31387;DHT22;69978;50.096;8.448;2023-07-30T07:17:27;19.90;99.90
31387;DHT22;69978;50.096;8.448;2023-07-30T07:19:52;19.90;99.90
31387;DHT22;69978;50.096;8.448;2023-07-30T07:22:18;19.90;99.90
31387;DHT22;69978;50.096;8.448;2023-07-30T07:24:46;20.00;99.90
31387;DHT22;69978;50.096;8.448;2023-07-30T07:27:12;19.90;99.90
31387;DHT22;69978;50.096;8.448;2023-07-30T07:29:38;19.90;99.90
31387;DHT22;69978;50.096;8.448;2023-07-30T07:32:03;19.90;99.90
31387;DHT22;69978;50.096;8.448;2023-07-30T07:34:29;19.90;99.90
31387;DHT22;69978;50.096;8.448;2023-07-30T07:36:55;19.90;99.90
31387;DHT22;69978;50.096;8.448;2023-07-30T07:39:20;19.90;99.90
31387;DHT22;69978;50.096;8.448;2023-07-30T07:41:46;19.90;99.90
31387;DHT22;69978;50.096;8.448;2023-07-30T07:44:14;20.00;99.90
31387;DHT22;69978;50.096;8.448;2023-07-30T07:46:40;20.00;99.90
31387;DHT22;69978;50.096;8.448;2023-07-30T07:49:05;20.10;99.90
31387;DHT22;69978;50.096;8.448;2023-07-30T07:51:33;20.10;99.90
31387;DHT22;69978;50.096;8.448;2023-07-30T07:53:58;20.10;99.90
31387;DHT22;69978;50.096;8.448;2023-07-30T07:56:24;20.20;99.90
31387;DHT22;69978;50.096;8.448;2023-07-30T07:58:50;20.30;99.90
31387;DHT22;69978;50.096;8.448;2023-07-30T08:01:15;20.30;99.90
31387;DHT22;69978;50.096;8.448;2023-07-30T08:03:41;20.30;99.90
31387;DHT22;69978;50.096;8.448;2023-07-30T08:06:06;20.20;99.90
31387;DHT22;69978;50.096;8.448;2023-07-30T08:08:32;20.20;99.90
31387;DHT22;69978;50.096;8.448;2023-07-30T08:10:58;20.30;99.90
31387;DHT22;69978;50.096;8.448;2023-07-30T08:13:23;20.30;99.90
31387;DHT22;69978;50.096;8.448;2023-07-30T08:15:49;20.40;99.90
31387;DHT22;69978;50.096;8.448;2023-07-30T08:18:14;20.50;99.90
31387;DHT22;69978;50.096;8.448;2023-07-30T08:20:40;20.50;99.90
31387;DHT22;69978;50.096;8.448;2023-07-30T08:23:06;20.60;99.90
31387;DHT22;69978;50.096;8.448;2023-07-30T08:25:32;20.80;99.90
31387;DHT22;69978;50.096;8.448;2023-07-30T08:27:57;20.90;99.90
31387;DHT22;69978;50.096;8.448;2023-07-30T08:30:23;21.00;99.90
31387;DHT22;69978;50.096;8.448;2023-07-30T08:32:48;21.10;99.90
31387;DHT22;69978;50.096;8.448;2023-07-30T08:35:14;21.00;99.90
31387;DHT22;69978;50.096;8.448;2023-07-30T08:37:40;21.00;99.90
31387;DHT22;69978;50.096;8.448;2023-07-30T08:40:06;20.90;99.90
31387;DHT22;69978;50.096;8.448;2023-07-30T08:42:32;20.90;99.90
31387;DHT22;69978;50.096;8.448;2023-07-30T08:44:57;20.80;99.90
31387;DHT22;69978;50.096;8.448;2023-07-30T08:47:23;20.80;99.90
31387;DHT22;69978;50.096;8.448;2023-07-30T08:49:48;20.70;99.90
31387;DHT22;69978;50.096;8.448;2023-07-30T08:52:16;20.70;99.90
31387;DHT22;69978;50.096;8.448;2023-07-30T08:54:42;20.70;99.90
31387;DHT22;69978;50.096;8.448;2023-07-30T08:57:09;20.70;99.90
31387;DHT22;69978;50.096;8.448;2023-07-30T08:59:42;20.90;99.90
31387;DHT22;69978;50.096;8.448;2023-07-30T09:02:13;20.80;99.90
31387;DHT22;69978;50.096;8.448;2023-07-30T09:04:47;20.80;99.90
31387;DHT22;69978;50.096;8.448;2023-07-30T09:07:14;20.80;99.90
31387;DHT22;69978;50.096;8.448;2023-07-30T09:09:40;20.70;99.90
31387;DHT22;69978;50.096;8.448;2023-07-30T09:12:13;20.80;99.90
31387;DHT22;69978;50.096;8.448;2023-07-30T09:14:40;20.90;99.90
31387;DHT22;69978;50.096;8.448;2023-07-30T09:17:05;20.90;99.90
31387;DHT22;69978;50.096;8.448;2023-07-30T09:19:35;20.70;99.90
31387;DHT22;69978;50.096;8.448;2023-07-30T09:22:04;20.20;99.90
31387;DHT22;69978;50.096;8.448;2023-07-30T09:24:30;19.80;99.90
31387;DHT22;69978;50.096;8.448;2023-07-30T09:26:57;19.60;99.90
31387;DHT22;69978;50.096;8.448;2023-07-30T09:29:26;19.40;99.90
31387;DHT22;69978;50.096;8.448;2023-07-30T09:31:53;19.30;99.90
31387;DHT22;69978;50.096;8.448;2023-07-30T09:34:21;19.20;99.90
31387;DHT22;69978;50.096;8.448;2023-07-30T09:36:47;19.00;99.90
31387;DHT22;69978;50.096;8.448;2023-07-30T09:39:21;18.70;99.90
31387;DHT22;69978;50.096;8.448;2023-07-30T09:41:48;18.50;99.90
31387;DHT22;69978;50.096;8.448;2023-07-30T09:44:17;18.30;99.90
31387;DHT22;69978;50.096;8.448;2023-07-30T09:46:44;18.20;99.90
31387;DHT22;69978;50.096;8.448;2023-07-30T09:49:10;18.20;99.90
31387;DHT22;69978;50.096;8.448;2023-07-30T09:51:40;18.10;99.90
31387;DHT22;69978;50.096;8.448;2023-07-30T09:54:10;18.10;99.90
31387;DHT22;69978;50.096;8.448;2023-07-30T09:56:37;18.10;99.90
31387;DHT22;69978;50.096;8.448;2023-07-30T09:59:07;18.10;99.90
31387;DHT22;69978;50.096;8.448;2023-07-30T10:01:35;18.00;99.90
31387;DHT22;69978;50.096;8.448;2023-07-30T10:04:07;18.00;99.90
31387;DHT22;69978;50.096;8.448;2023-07-30T10:06:33;18.00;99.90
31387;DHT22;69978;50.096;8.448;2023-07-30T10:09:01;18.00;99.90
31387;DHT22;69978;50.096;8.448;2023-07-30T10:11:28;17.90;99.90
31387;DHT22;69978;50.096;8.448;2023-07-30T10:13:54;17.80;99.90
31387;DHT22;69978;50.096;8.448;2023-07-30T10:16:26;17.80;99.90
31387;DHT22;69978;50.096;8.448;2023-07-30T10:18:56;17.90;99.90
31387;DHT22;69978;50.096;8.448;2023-07-30T10:21:25;18.00;99.90
31387;DHT22;69978;50.096;8.448;2023-07-30T10:24:04;18.00;99.90
31387;DHT22;69978;50.096;8.448;2023-07-30T10:26:35;18.00;99.90
31387;DHT22;69978;50.096;8.448;2023-07-30T10:29:17;18.10;99.90
31387;DHT22;69978;50.096;8.448;2023-07-30T10:31:55;18.30;99.90
31387;DHT22;69978;50.096;8.448;2023-07-30T10:34:21;18.50;99.90
31387;DHT22;69978;50.096;8.448;2023-07-30T10:36:49;18.70;99.90
31387;DHT22;69978;50.096;8.448;2023-07-30T10:39:20;19.10;99.90
31387;DHT22;69978;50.096;8.448;2023-07-30T10:41:48;19.70;99.90
31387;DHT22;69978;50.096;8.448;2023-07-30T10:44:25;20.00;99.90
31387;DHT22;69978;50.096;8.448;2023-07-30T10:46:53;20.20;99.90
31387;DHT22;69978;50.096;8.448;2023-07-30T10:49:19;20.20;99.90
31387;DHT22;69978;50.096;8.448;2023-07-30T10:51:45;20.20;99.90
31387;DHT22;69978;50.096;8.448;2023-07-30T10:54:10;20.10;99.90
31387;DHT22;69978;50.096;8.448;2023-07-30T10:56:37;20.10;99.90
31387;DHT22;69978;50.096;8.448;2023-07-30T10:59:07;20.10;99.90
31387;DHT22;69978;50.096;8.448;2023-07-30T11:01:43;20.10;99.90
31387;DHT22;69978;50.096;8.448;2023-07-30T11:04:17;20.10;99.90
31387;DHT22;69978;50.096;8.448;2023-07-30T11:06:51;20.30;99.90
31387;DHT22;69978;50.096;8.448;2023-07-30T11:09:27;20.70;99.90
31387;DHT22;69978;50.096;8.448;2023-07-30T11:11:54;21.30;99.90
31387;DHT22;69978;50.096;8.448;2023-07-30T11:14:22;21.60;99.90
31387;DHT22;69978;50.096;8.448;2023-07-30T11:16:56;21.90;99.90
31387;DHT22;69978;50.096;8.448;2023-07-30T11:19:24;21.90;99.90
31387;DHT22;69978;50.096;8.448;2023-07-30T11:21:52;21.70;99.90
31387;DHT22;69978;50.096;8.448;2023-07-30T11:24:22;21.60;99.90
31387;DHT22;69978;50.096;8.448;2023-07-30T11:27:00;21.20;99.90
31387;DHT22;69978;50.096;8.448;2023-07-30T11:29:26;21.00;99.90
31387;DHT22;69978;50.096;8.448;2023-07-30T11:31:56;20.70;99.90
31387;DHT22;69978;50.096;8.448;2023-07-30T11:34:22;20.60;99.90
31387;DHT22;69978;50.096;8.448;2023-07-30T11:36:48;20.50;99.90
31387;DHT22;69978;50.096;8.448;2023-07-30T11:39:14;20.40;99.90
31387;DHT22;69978;50.096;8.448;2023-07-30T11:41:40;20.40;99.90
31387;DHT22;69978;50.096;8.448;2023-07-30T11:44:06;20.50;99.90
31387;DHT22;69978;50.096;8.448;2023-07-30T11:46:32;20.60;99.90
31387;DHT22;69978;50.096;8.448;2023-07-30T11:49:13;20.60;99.90
31387;DHT22;69978;50.096;8.448;2023-07-30T11:51:39;20.60;99.90
31387;DHT22;69978;50.096;8.448;2023-07-30T11:54:05;20.70;99.90
31387;DHT22;69978;50.096;8.448;2023-07-30T11:56:34;20.80;99.90
31387;DHT22;69978;50.096;8.448;2023-07-30T11:59:02;21.00;99.90
31387;DHT22;69978;50.096;8.448;2023-07-30T12:01:31;21.10;99.90
31387;DHT22;69978;50.096;8.448;2023-07-30T12:03:59;21.00;99.90
31387;DHT22;69978;50.096;8.448;2023-07-30T12:06:45;21.00;99.90
31387;DHT22;69978;50.096;8.448;2023-07-30T12:09:16;21.00;99.90
31387;DHT22;69978;50.096;8.448;2023-07-30T12:12:00;21.10;99.90
31387;DHT22;69978;50.096;8.448;2023-07-30T12:14:29;21.10;99.90
31387;DHT22;69978;50.096;8.448;2023-07-30T12:17:07;20.80;99.90
31387;DHT22;69978;50.096;8.448;2023-07-30T12:19:32;20.60;99.90
31387;DHT22;69978;50.096;8.448;2023-07-30T12:21:58;20.50;99.90
31387;DHT22;69978;50.096;8.448;2023-07-30T12:24:24;20.40;99.90
31387;DHT22;69978;50.096;8.448;2023-07-30T12:26:49;20.60;99.90
31387;DHT22;69978;50.096;8.448;2023-07-30T12:29:15;20.70;99.90
31387;DHT22;69978;50.096;8.448;2023-07-30T12:31:40;20.90;99.90
31387;DHT22;69978;50.096;8.448;2023-07-30T12:34:09;21.00;99.90
31387;DHT22;69978;50.096;8.448;2023-07-30T12:36:34;21.50;99.90
31387;DHT22;69978;50.096;8.448;2023-07-30T12:39:00;22.00;99.90
31387;DHT22;69978;50.096;8.448;2023-07-30T12:41:25;22.40;99.90
31387;DHT22;69978;50.096;8.448;2023-07-30T12:43:53;22.70;99.90
31387;DHT22;69978;50.096;8.448;2023-07-30T12:46:19;22.80;99.90
31387;DHT22;69978;50.096;8.448;2023-07-30T12:48:45;22.90;99.90
31387;DHT22;69978;50.096;8.448;2023-07-30T12:51:10;23.20;99.90
31387;DHT22;69978;50.096;8.448;2023-07-30T12:53:37;23.10;99.90
31387;DHT22;69978;50.096;8.448;2023-07-30T12:56:03;22.90;99.90
31387;DHT22;69978;50.096;8.448;2023-07-30T12:58:28;22.70;99.90
31387;DHT22;69978;50.096;8.448;2023-07-30T13:00:55;22.30;99.90
31387;DHT22;69978;50.096;8.448;2023-07-30T13:03:21;22.10;99.90
31387;DHT22;69978;50.096;8.448;2023-07-30T13:05:46;21.80;99.90
31387;DHT22;69978;50.096;8.448;2023-07-30T13:08:12;21.60;99.90
31387;DHT22;69978;50.096;8.448;2023-07-30T13:10:38;21.80;99.90
31387;DHT22;69978;50.096;8.448;2023-07-30T13:13:03;22.20;99.90
31387;DHT22;69978;50.096;8.448;2023-07-30T13:15:29;22.80;99.90
31387;DHT22;69978;50.096;8.448;2023-07-30T13:17:54;22.80;99.90
31387;DHT22;69978;50.096;8.448;2023-07-30T13:20:20;23.10;99.90
31387;DHT22;69978;50.096;8.448;2023-07-30T13:22:46;23.10;99.90
31387;DHT22;69978;50.096;8.448;2023-07-30T13:25:11;23.10;99.90
31387;DHT22;69978;50.096;8.448;2023-07-30T13:27:37;23.30;99.90
31387;DHT22;69978;50.096;8.448;2023-07-30T13:30:03;23.10;99.90
31387;DHT22;69978;50.096;8.448;2023-07-30T13:32:28;23.30;99.90
31387;DHT22;69978;50.096;8.448;2023-07-30T13:34:54;23.30;99.90
31387;DHT22;69978;50.096;8.448;2023-07-30T13:37:20;23.30;99.90
31387;DHT22;69978;50.096;8.448;2023-07-30T13:39:45;23.40;99.90
31387;DHT22;69978;50.096;8.448;2023-07-30T13:42:11;23.40;99.90
31387;DHT22;69978;50.096;8.448;2023-07-30T13:44:37;23.50;99.90
31387;DHT22;69978;50.096;8.448;2023-07-30T13:47:02;23.80;99.90
31387;DHT22;69978;50.096;8.448;2023-07-30T13:49:28;23.60;99.90
31387;DHT22;69978;50.096;8.448;2023-07-30T13:51:54;23.90;99.90
31387;DHT22;69978;50.096;8.448;2023-07-30T13:54:19;24.00;99.90
31387;DHT22;69978;50.096;8.448;2023-07-30T13:56:45;24.20;99.90
31387;DHT22;69978;50.096;8.448;2023-07-30T13:59:10;24.30;99.90
31387;DHT22;69978;50.096;8.448;2023-07-30T14:01:36;24.30;99.90
31387;DHT22;69978;50.096;8.448;2023-07-30T14:04:02;24.20;99.90
31387;DHT22;69978;50.096;8.448;2023-07-30T14:06:27;24.10;99.90
31387;DHT22;69978;50.096;8.448;2023-07-30T14:08:54;24.10;99.90
31387;DHT22;69978;50.096;8.448;2023-07-30T14:11:19;24.10;99.90
31387;DHT22;69978;50.096;8.448;2023-07-30T14:13:46;23.90;99.90
31387;DHT22;69978;50.096;8.448;2023-07-30T14:16:11;23.50;99.90
31387;DHT22;69978;50.096;8.448;2023-07-30T14:18:37;23.50;99.90
31387;DHT22;69978;50.096;8.448;2023-07-30T14:21:04;23.30;99.90
31387;DHT22;69978;50.096;8.448;2023-07-30T14:23:30;23.20;99.90
31387;DHT22;69978;50.096;8.448;2023-07-30T14:25:55;23.10;99.90
31387;DHT22;69978;50.096;8.448;2023-07-30T14:28:21;22.90;99.90
31387;DHT22;69978;50.096;8.448;2023-07-30T14:30:48;22.60;99.90
31387;DHT22;69978;50.096;8.448;2023-07-30T14:33:13;22.50;99.90
31387;DHT22;69978;50.096;8.448;2023-07-30T14:35:39;22.40;99.90
31387;DHT22;69978;50.096;8.448;2023-07-30T14:38:05;22.40;99.90
31387;DHT22;69978;50.096;8.448;2023-07-30T14:40:31;22.40;99.90
31387;DHT22;69978;50.096;8.448;2023-07-30T14:42:57;22.30;99.90
31387;DHT22;69978;50.096;8.448;2023-07-30T14:45:23;22.30;99.90
31387;DHT22;69978;50.096;8.448;2023-07-30T14:47:48;22.20;99.90
31387;DHT22;69978;50.096;8.448;2023-07-30T14:50:14;22.20;99.90
31387;DHT22;69978;50.096;8.448;2023-07-30T14:52:40;22.30;99.90
31387;DHT22;69978;50.096;8.448;2023-07-30T14:55:06;22.30;99.90
31387;DHT22;69978;50.096;8.448;2023-07-30T14:57:31;22.40;99.90
31387;DHT22;69978;50.096;8.448;2023-07-30T14:59:58;22.50;99.90
31387;DHT22;69978;50.096;8.448;2023-07-30T15:02:26;22.60;99.90
31387;DHT22;69978;50.096;8.448;2023-07-30T15:04:53;22.50;99.90
31387;DHT22;69978;50.096;8.448;2023-07-30T15:07:19;22.40;99.90
31387;DHT22;69978;50.096;8.448;2023-07-30T15:09:44;22.40;99.90
31387;DHT22;69978;50.096;8.448;2023-07-30T15:12:12;22.30;99.90
31387;DHT22;69978;50.096;8.448;2023-07-30T15:14:37;22.20;99.90
31387;DHT22;69978;50.096;8.448;2023-07-30T15:17:03;22.30;99.90
31387;DHT22;69978;50.096;8.448;2023-07-30T15:19:29;22.40;99.90
31387;DHT22;69978;50.096;8.448;2023-07-30T15:21:55;22.40;99.90
31387;DHT22;69978;50.096;8.448;2023-07-30T15:24:20;22.40;99.90
31387;DHT22;69978;50.096;8.448;2023-07-30T15:26:46;22.30;99.90
31387;DHT22;69978;50.096;8.448;2023-07-30T15:29:11;22.30;99.90